createdAt,value
2022-12-25T00:01:34.022Z,20.33
2022-12-25T00:04:02.300Z,18.43
2022-12-25T00:06:31.958Z,19.17
2022-12-25T00:09:00.152Z,20.13
2022-12-25T00:11:28.378Z,21.40
2022-12-25T00:13:56.529Z,19.63
2022-12-25T00:16:26.524Z,20.17
2022-12-25T00:18:59.545Z,21.00
2022-12-25T00:21:28.391Z,19.53
2022-12-25T00:23:59.340Z,21.13
2022-12-25T00:26:29.166Z,19.60
2022-12-25T00:28:58.884Z,20.63
2022-12-25T00:31:27.474Z,19.80
2022-12-25T00:33:55.872Z,21.73
2022-12-25T00:36:24.707Z,21.80
2022-12-25T00:38:52.887Z,21.03
2022-12-25T00:41:44.210Z,21.50
2022-12-25T00:44:14.629Z,21.37
2022-12-25T00:46:43.562Z,20.70
2022-12-25T00:49:12.472Z,22.63
2022-12-25T00:51:40.900Z,20.77
2022-12-25T00:54:09.018Z,20.07
2022-12-25T00:56:38.553Z,21.67
2022-12-25T00:59:06.626Z,23.30
2022-12-25T01:01:35.333Z,21.23
2022-12-25T01:04:03.528Z,21.43
2022-12-25T01:06:31.749Z,20.87
2022-12-25T01:09:17.815Z,23.07
2022-12-25T01:11:48.023Z,20.63
2022-12-25T01:14:16.454Z,23.80
2022-12-25T01:16:44.696Z,21.23
2022-12-25T01:19:13.012Z,22.40
2022-12-25T01:21:41.251Z,21.40
2022-12-25T01:24:09.760Z,22.10
2022-12-25T01:26:37.835Z,22.90
2022-12-25T01:29:08.454Z,22.37
2022-12-25T01:31:36.936Z,24.37
2022-12-25T01:34:05.023Z,22.60
2022-12-25T01:36:33.106Z,25.37
2022-12-25T01:39:01.229Z,22.43
2022-12-25T01:41:29.443Z,23.40
2022-12-25T01:44:03.943Z,21.47
2022-12-25T01:46:34.658Z,23.90
2022-12-25T01:49:06.175Z,21.30
2022-12-25T01:51:40.109Z,20.90
2022-12-25T01:54:11.287Z,21.60
2022-12-25T01:56:42.519Z,23.53
2022-12-25T01:59:11.886Z,20.30
2022-12-25T02:01:42.066Z,21.13
2022-12-25T02:04:16.791Z,21.57
2022-12-25T02:06:45.216Z,22.27
2022-12-25T02:09:14.652Z,21.47
2022-12-25T02:12:00.249Z,22.90
2022-12-25T02:14:32.025Z,21.43
2022-12-25T02:17:08.467Z,23.00
2022-12-25T02:20:03.367Z,22.50
2022-12-25T02:22:45.703Z,21.47
2022-12-25T02:25:31.426Z,21.10
2022-12-25T02:28:13.203Z,21.93
2022-12-25T02:30:44.713Z,21.07
2022-12-25T02:33:34.372Z,22.40
2022-12-25T02:36:08.269Z,22.27
2022-12-25T02:39:01.278Z,20.73
2022-12-25T02:41:30.687Z,23.50
2022-12-25T02:44:20.899Z,23.60
2022-12-25T02:47:06.723Z,23.00
2022-12-25T02:49:53.574Z,22.33
2022-12-25T02:52:40.916Z,19.63
2022-12-25T02:55:38.266Z,22.60
2022-12-25T02:58:28.462Z,22.50
2022-12-25T03:01:23.389Z,22.60
2022-12-25T03:04:12.052Z,22.80
2022-12-25T03:06:46.800Z,22.30
2022-12-25T03:09:46.293Z,23.00
2022-12-25T03:12:19.158Z,22.40
2022-12-25T03:15:01.329Z,23.30
2022-12-25T03:17:32.164Z,23.57
2022-12-25T03:20:18.972Z,22.53
2022-12-25T03:23:05.640Z,23.30
2022-12-25T03:25:51.824Z,21.73
2022-12-25T03:28:20.080Z,21.83
2022-12-25T03:31:12.930Z,22.33
2022-12-25T03:34:08.920Z,23.20
2022-12-25T03:36:46.447Z,22.27
2022-12-25T03:39:41.045Z,23.03
2022-12-25T03:42:28.003Z,23.13
2022-12-25T03:45:25.904Z,21.97
2022-12-25T03:48:16.842Z,23.30
2022-12-25T03:51:07.515Z,23.83
2022-12-25T03:53:58.747Z,24.30
2022-12-25T03:56:54.051Z,24.40
2022-12-25T03:59:41.556Z,21.80
2022-12-25T04:02:27.592Z,23.47
2022-12-25T04:05:13.191Z,23.97
2022-12-25T04:08:00.226Z,25.20
2022-12-25T04:10:45.542Z,24.90
2022-12-25T04:13:30.809Z,23.67
2022-12-25T04:16:16.495Z,22.67
2022-12-25T04:19:02.041Z,23.90
2022-12-25T04:21:46.711Z,20.57
2022-12-25T04:24:33.449Z,24.07
2022-12-25T04:27:19.211Z,23.63
2022-12-25T04:30:04.715Z,22.13
2022-12-25T04:32:50.123Z,22.27
2022-12-25T04:35:35.374Z,22.73
2022-12-25T04:38:03.593Z,23.73
2022-12-25T04:40:33.135Z,22.70
2022-12-25T04:43:01.312Z,23.90
2022-12-25T04:45:29.472Z,21.33
2022-12-25T04:48:00.016Z,22.70
2022-12-25T04:50:28.137Z,23.03
2022-12-25T04:52:56.346Z,22.83
2022-12-25T04:55:24.397Z,25.10
2022-12-25T04:57:53.876Z,22.17
2022-12-25T05:00:22.111Z,21.03
2022-12-25T05:02:50.534Z,22.50
2022-12-25T05:05:18.761Z,22.03
2022-12-25T05:07:47.121Z,23.07
2022-12-25T05:10:15.611Z,22.90
2022-12-25T05:12:43.862Z,23.07
2022-12-25T05:15:13.523Z,22.57
2022-12-25T05:17:41.770Z,23.00
2022-12-25T05:20:10.056Z,23.67
2022-12-25T05:22:38.531Z,23.40
2022-12-25T05:25:07.497Z,21.70
2022-12-25T05:27:35.903Z,24.40
2022-12-25T05:30:04.794Z,24.77
2022-12-25T05:32:34.253Z,22.90
2022-12-25T05:35:02.346Z,24.50
2022-12-25T05:37:30.510Z,24.00
2022-12-25T05:39:59.210Z,26.33
2022-12-25T05:42:27.357Z,24.30
2022-12-25T05:44:55.578Z,24.47
2022-12-25T05:47:23.701Z,22.80
2022-12-25T05:49:53.277Z,24.93
2022-12-25T05:52:21.445Z,24.20
2022-12-25T05:54:49.512Z,24.53
2022-12-25T05:57:17.584Z,23.20
2022-12-25T05:59:45.737Z,23.80
2022-12-25T06:02:14.005Z,22.23
2022-12-25T06:04:42.619Z,23.40
2022-12-25T06:07:12.295Z,24.43
2022-12-25T06:09:40.417Z,24.50
2022-12-25T06:12:09.467Z,22.83
2022-12-25T06:14:37.944Z,22.97
2022-12-25T06:17:06.111Z,21.30
2022-12-25T06:19:34.626Z,21.87
2022-12-25T06:22:02.920Z,21.23
2022-12-25T06:24:32.531Z,22.80
2022-12-25T06:27:00.752Z,23.30
2022-12-25T06:29:29.060Z,23.97
2022-12-25T06:31:57.464Z,22.57
2022-12-25T06:34:25.962Z,21.63
2022-12-25T06:36:54.720Z,25.07
2022-12-25T06:39:25.420Z,26.63
2022-12-25T06:41:55.713Z,22.10
2022-12-25T06:44:24.011Z,24.70
2022-12-25T06:46:53.766Z,27.20
2022-12-25T06:49:22.225Z,22.43
2022-12-25T06:51:50.400Z,21.03
2022-12-25T06:54:18.496Z,21.00
2022-12-25T06:56:46.828Z,20.40
2022-12-25T06:59:16.511Z,21.93
2022-12-25T07:01:48.159Z,24.40
2022-12-25T07:04:20.813Z,36.80
2022-12-25T07:06:48.979Z,24.83
2022-12-25T07:09:17.023Z,23.60
2022-12-25T07:11:45.150Z,20.37
2022-12-25T07:14:23.788Z,26.13
2022-12-25T07:16:52.914Z,22.00
2022-12-25T07:19:21.049Z,19.70
2022-12-25T07:21:49.130Z,23.70
2022-12-25T07:24:20.293Z,19.33
2022-12-25T07:26:48.724Z,19.17
2022-12-25T07:29:19.390Z,18.50
2022-12-25T07:31:48.167Z,18.60
2022-12-25T07:34:18.227Z,19.30
2022-12-25T07:36:46.434Z,22.47
2022-12-25T07:39:16.250Z,27.33
2022-12-25T07:41:45.058Z,20.90
2022-12-25T07:44:17.923Z,18.73
2022-12-25T07:46:45.963Z,18.10
2022-12-25T07:49:14.426Z,18.73
2022-12-25T07:51:42.914Z,17.53
2022-12-25T07:54:11.525Z,19.43
2022-12-25T07:56:40.263Z,18.40
2022-12-25T07:59:08.400Z,17.80
2022-12-25T08:01:38.156Z,16.80
2022-12-25T08:04:07.946Z,32.80
2022-12-25T08:06:37.062Z,20.03
2022-12-25T08:09:07.539Z,20.03
2022-12-25T08:11:35.872Z,17.97
2022-12-25T08:14:07.086Z,19.30
2022-12-25T08:16:39.967Z,18.90
2022-12-25T08:19:08.190Z,19.40
2022-12-25T08:21:36.370Z,19.70
2022-12-25T08:24:04.850Z,24.33
2022-12-25T08:26:33.017Z,19.53
2022-12-25T08:29:01.179Z,20.73
2022-12-25T08:31:31.329Z,17.00
2022-12-25T08:34:03.351Z,23.10
2022-12-25T08:36:32.180Z,23.37
2022-12-25T08:39:03.268Z,19.00
2022-12-25T08:41:32.134Z,19.07
2022-12-25T08:44:00.462Z,19.47
2022-12-25T08:46:28.739Z,30.67
2022-12-25T08:48:57.585Z,21.03
2022-12-25T08:51:27.804Z,20.83
2022-12-25T08:54:01.152Z,19.57
2022-12-25T08:56:29.591Z,18.50
2022-12-25T08:59:00.974Z,29.97
2022-12-25T09:01:29.518Z,32.60
2022-12-25T09:03:58.000Z,23.40
2022-12-25T09:06:28.089Z,20.00
2022-12-25T09:08:56.552Z,17.77
2022-12-25T09:11:25.039Z,17.30
2022-12-25T09:13:53.340Z,18.33
2022-12-25T09:16:23.277Z,20.37
2022-12-25T09:18:52.027Z,19.80
2022-12-25T09:21:20.905Z,18.10
2022-12-25T09:23:50.494Z,18.03
2022-12-25T09:26:25.524Z,17.80
2022-12-25T09:28:56.660Z,17.00
2022-12-25T09:31:25.132Z,22.03
2022-12-25T09:33:56.899Z,23.77
2022-12-25T09:36:25.831Z,21.10
2022-12-25T09:38:55.567Z,18.40
2022-12-25T09:41:30.979Z,18.50
2022-12-25T09:44:04.101Z,19.27
2022-12-25T09:46:55.131Z,17.20
2022-12-25T09:49:38.257Z,20.40
2022-12-25T09:52:10.997Z,22.10
2022-12-25T09:54:50.708Z,20.90
2022-12-25T09:57:18.911Z,20.30
2022-12-25T09:59:47.638Z,18.73
2022-12-25T10:02:48.090Z,17.50
2022-12-25T10:05:43.700Z,17.83
2022-12-25T10:08:21.519Z,19.43
2022-12-25T10:10:58.368Z,20.67
2022-12-25T10:13:53.796Z,19.33
2022-12-25T10:16:31.776Z,17.30
2022-12-25T10:19:16.332Z,18.20
2022-12-25T10:21:44.648Z,17.77
2022-12-25T10:24:25.777Z,17.87
2022-12-25T10:26:57.516Z,18.17
2022-12-25T10:29:25.817Z,21.60
2022-12-25T10:31:56.814Z,18.40
2022-12-25T10:34:25.444Z,18.40
2022-12-25T10:36:53.905Z,17.50
2022-12-25T10:39:24.428Z,17.73
2022-12-25T10:42:12.403Z,18.17
2022-12-25T10:44:40.551Z,22.10
2022-12-25T10:47:08.721Z,19.60
2022-12-25T10:49:39.567Z,17.97
2022-12-25T10:52:20.815Z,18.43
2022-12-25T10:54:49.386Z,18.53
2022-12-25T10:57:21.607Z,17.13
2022-12-25T10:59:51.941Z,18.80
2022-12-25T11:02:25.120Z,16.90
2022-12-25T11:05:01.499Z,17.20
2022-12-25T11:07:29.932Z,16.50
2022-12-25T11:10:05.178Z,17.00
2022-12-25T11:12:38.112Z,17.53
2022-12-25T11:15:27.962Z,23.47
2022-12-25T11:17:56.326Z,32.80
2022-12-25T11:20:25.479Z,18.67
2022-12-25T11:22:53.867Z,17.83
2022-12-25T11:25:24.819Z,18.20
2022-12-25T11:28:01.127Z,17.20
2022-12-25T11:30:31.048Z,19.40
2022-12-25T11:33:01.529Z,17.93
2022-12-25T11:35:33.329Z,16.40
2022-12-25T11:38:01.704Z,18.27
2022-12-25T11:40:36.701Z,20.03
2022-12-25T11:43:12.128Z,15.67
2022-12-25T11:45:46.551Z,15.93
2022-12-25T11:48:19.137Z,16.70
2022-12-25T11:50:50.905Z,17.70
2022-12-25T11:53:23.830Z,16.80
2022-12-25T11:55:55.526Z,15.97
2022-12-25T11:58:29.907Z,17.90
2022-12-25T12:01:01.290Z,18.07
2022-12-25T12:03:32.534Z,20.30
2022-12-25T12:06:06.010Z,22.43
2022-12-25T12:08:36.281Z,21.87
2022-12-25T12:11:19.680Z,18.77
2022-12-25T12:14:23.007Z,17.83
2022-12-25T12:16:51.274Z,17.00
2022-12-25T12:19:27.643Z,17.53
2022-12-25T12:21:58.303Z,17.77
2022-12-25T12:24:30.958Z,17.73
2022-12-25T12:27:04.631Z,17.70
2022-12-25T12:29:41.759Z,17.10
2022-12-25T12:32:40.688Z,18.03
2022-12-25T12:35:15.670Z,17.73
2022-12-25T12:37:46.039Z,18.70
2022-12-25T12:40:32.530Z,17.80
2022-12-25T12:43:01.387Z,17.47
2022-12-25T12:45:34.636Z,17.37
2022-12-25T12:48:03.919Z,17.37
2022-12-25T12:50:36.092Z,17.10
2022-12-25T12:53:25.051Z,15.87
2022-12-25T12:55:53.740Z,15.57
2022-12-25T12:58:33.728Z,14.50
2022-12-25T13:01:13.100Z,15.80
2022-12-25T13:04:02.898Z,16.37
2022-12-25T13:06:35.368Z,13.83
2022-12-25T13:09:10.544Z,14.90
2022-12-25T13:11:42.825Z,15.00
2022-12-25T13:14:17.169Z,15.20
2022-12-25T13:16:48.699Z,19.03
2022-12-25T13:19:21.831Z,18.23
2022-12-25T13:21:55.224Z,17.60
2022-12-25T13:24:26.224Z,18.80
2022-12-25T13:26:54.483Z,24.90
2022-12-25T13:29:31.438Z,19.53
2022-12-25T13:32:02.693Z,17.47
2022-12-25T13:34:33.692Z,16.30
2022-12-25T13:37:08.191Z,15.57
2022-12-25T13:39:39.472Z,16.20
2022-12-25T13:42:09.843Z,18.37
2022-12-25T13:44:48.376Z,17.90
2022-12-25T13:47:21.219Z,17.37
2022-12-25T13:49:50.580Z,17.90
2022-12-25T13:52:21.207Z,17.77
2022-12-25T13:55:01.222Z,17.07
2022-12-25T13:57:35.285Z,17.83
2022-12-25T14:00:05.722Z,18.07
2022-12-25T14:02:38.273Z,18.50
2022-12-25T14:05:24.935Z,17.80
2022-12-25T14:07:54.001Z,18.60
2022-12-25T14:10:23.201Z,18.47
2022-12-25T14:12:52.651Z,21.20
2022-12-25T14:15:23.395Z,22.10
2022-12-25T14:17:53.518Z,25.90
2022-12-25T14:20:27.043Z,24.47
2022-12-25T14:22:58.537Z,21.63
2022-12-25T14:25:31.316Z,20.80
2022-12-25T14:28:00.560Z,19.60
2022-12-25T14:30:30.564Z,19.50
2022-12-25T14:33:02.635Z,21.23
2022-12-25T14:35:31.336Z,19.70
2022-12-25T14:38:01.369Z,18.80
2022-12-25T14:40:32.096Z,19.70
2022-12-25T14:43:02.929Z,19.80
2022-12-25T14:45:33.568Z,20.60
2022-12-25T14:48:22.915Z,20.50
2022-12-25T14:51:00.043Z,25.37
2022-12-25T14:53:35.671Z,25.30
2022-12-25T14:56:04.702Z,28.90
2022-12-25T14:58:35.572Z,30.43
2022-12-25T15:01:06.620Z,32.60
2022-12-25T15:03:38.108Z,27.97
2022-12-25T15:06:08.203Z,27.03
2022-12-25T15:08:37.006Z,23.80
2022-12-25T15:11:05.365Z,24.80
2022-12-25T15:13:34.164Z,23.80
2022-12-25T15:16:07.242Z,23.17
2022-12-25T15:18:40.682Z,24.10
2022-12-25T15:21:16.531Z,24.30
2022-12-25T15:23:47.824Z,23.80
2022-12-25T15:26:17.132Z,26.20
2022-12-25T15:28:45.278Z,26.37
2022-12-25T15:31:22.064Z,23.40
2022-12-25T15:33:52.393Z,25.17
2022-12-25T15:36:20.649Z,24.37
2022-12-25T15:38:48.993Z,24.40
2022-12-25T15:41:34.178Z,24.93
2022-12-25T15:44:02.277Z,26.00
2022-12-25T15:46:30.580Z,26.60
2022-12-25T15:49:00.528Z,26.00
2022-12-25T15:51:29.040Z,25.27
2022-12-25T15:53:57.113Z,24.77
2022-12-25T15:56:25.810Z,25.67
2022-12-25T15:58:54.341Z,26.77
2022-12-25T16:01:23.113Z,25.20
2022-12-25T16:03:51.549Z,27.27
2022-12-25T16:06:21.825Z,26.57
2022-12-25T16:08:49.993Z,29.00
2022-12-25T16:11:18.219Z,33.77
2022-12-25T16:13:46.382Z,32.33
2022-12-25T16:16:14.650Z,32.77
2022-12-25T16:18:47.363Z,35.33
2022-12-25T16:21:19.693Z,36.80
2022-12-25T16:23:49.236Z,35.07
2022-12-25T16:26:17.746Z,29.73
2022-12-25T16:28:46.357Z,29.43
2022-12-25T16:31:14.655Z,27.13
2022-12-25T16:33:43.235Z,26.47
2022-12-25T16:36:11.433Z,27.77
2022-12-25T16:38:39.647Z,27.77
2022-12-25T16:41:12.306Z,27.60
2022-12-25T16:43:43.284Z,27.60
2022-12-25T16:46:13.540Z,26.70
2022-12-25T16:48:42.260Z,25.83
2022-12-25T16:51:11.352Z,26.97
2022-12-25T16:53:39.872Z,27.23
2022-12-25T16:56:11.310Z,28.33
2022-12-25T16:58:39.449Z,27.80
2022-12-25T17:01:09.216Z,27.07
2022-12-25T17:03:38.043Z,27.13
2022-12-25T17:06:13.456Z,30.67
2022-12-25T17:08:42.009Z,29.53
2022-12-25T17:11:12.028Z,30.57
2022-12-25T17:13:40.254Z,36.10
2022-12-25T17:16:16.102Z,31.17
2022-12-25T17:18:44.342Z,32.13
2022-12-25T17:21:14.750Z,30.77
2022-12-25T17:23:45.023Z,28.47
2022-12-25T17:26:14.705Z,29.07
2022-12-25T17:28:43.156Z,27.43
2022-12-25T17:31:13.696Z,26.70
2022-12-25T17:33:43.414Z,26.57
2022-12-25T17:36:13.336Z,28.20
2022-12-25T17:38:42.371Z,26.90
2022-12-25T17:41:15.889Z,24.60
2022-12-25T17:43:45.649Z,26.30
2022-12-25T17:46:16.660Z,27.70
2022-12-25T17:48:45.498Z,27.27
2022-12-25T17:51:16.098Z,23.60
2022-12-25T17:53:47.028Z,26.70
2022-12-25T17:56:17.813Z,28.37
2022-12-25T17:58:50.374Z,36.77
2022-12-25T18:01:20.282Z,38.23
2022-12-25T18:03:49.364Z,35.50
2022-12-25T18:06:20.180Z,36.93
2022-12-25T18:08:49.192Z,34.90
2022-12-25T18:11:21.355Z,36.60
2022-12-25T18:13:52.071Z,36.00
2022-12-25T18:16:22.066Z,34.80
2022-12-25T18:18:52.597Z,36.97
2022-12-25T18:21:22.303Z,36.67
2022-12-25T18:23:50.831Z,33.17
2022-12-25T18:26:21.612Z,32.80
2022-12-25T18:28:50.662Z,33.00
2022-12-25T18:31:21.503Z,34.73
2022-12-25T18:33:50.369Z,31.60
2022-12-25T18:36:21.306Z,29.57
2022-12-25T18:38:50.190Z,31.10
2022-12-25T18:41:23.901Z,29.90
2022-12-25T18:43:55.586Z,30.40
2022-12-25T18:46:26.186Z,30.10
2022-12-25T18:48:54.859Z,27.07
2022-12-25T18:51:23.436Z,30.63
2022-12-25T18:53:52.100Z,32.73
2022-12-25T18:56:23.624Z,31.27
2022-12-25T18:58:51.989Z,30.90
2022-12-25T19:01:23.289Z,30.80
2022-12-25T19:03:56.054Z,29.17
2022-12-25T19:06:33.140Z,29.93
2022-12-25T19:09:09.211Z,29.30
2022-12-25T19:11:46.219Z,37.80
2022-12-25T19:14:15.625Z,39.10
2022-12-25T19:16:44.041Z,40.70
2022-12-25T19:19:13.017Z,41.57
2022-12-25T19:21:41.292Z,57.83
2022-12-25T19:24:09.655Z,46.47
2022-12-25T19:26:39.277Z,40.03
2022-12-25T19:29:07.390Z,37.50
2022-12-25T19:31:35.633Z,36.23
2022-12-25T19:34:03.750Z,39.70
2022-12-25T19:36:32.420Z,38.50
2022-12-25T19:39:04.361Z,35.70
2022-12-25T19:41:32.837Z,37.00
2022-12-25T19:44:03.143Z,34.07
2022-12-25T19:46:34.450Z,32.03
2022-12-25T19:49:04.473Z,33.93
2022-12-25T19:51:34.267Z,32.50
2022-12-25T19:54:02.856Z,40.93
2022-12-25T19:56:31.739Z,45.60
2022-12-25T19:59:00.336Z,43.37
2022-12-25T20:01:31.130Z,45.20
2022-12-25T20:03:59.419Z,42.50
2022-12-25T20:06:29.698Z,41.57
2022-12-25T20:09:00.794Z,47.17
2022-12-25T20:11:31.259Z,55.47
2022-12-25T20:14:00.179Z,57.97
2022-12-25T20:16:30.031Z,45.30
2022-12-25T20:18:59.209Z,44.77
2022-12-25T20:21:27.668Z,47.13
2022-12-25T20:23:56.100Z,47.53
2022-12-25T20:26:27.452Z,52.83
2022-12-25T20:28:55.726Z,49.10
2022-12-25T20:31:27.669Z,48.67
2022-12-25T20:33:58.333Z,48.37
2022-12-25T20:36:31.223Z,50.63
2022-12-25T20:39:04.597Z,48.53
2022-12-25T20:41:32.758Z,46.20
2022-12-25T20:44:01.860Z,46.47
2022-12-25T20:46:30.299Z,52.50
2022-12-25T20:48:59.911Z,49.47
2022-12-25T20:51:28.411Z,51.17
2022-12-25T20:53:56.884Z,51.90
2022-12-25T20:56:26.871Z,52.30
2022-12-25T20:58:56.432Z,53.20
2022-12-25T21:01:25.350Z,53.67
2022-12-25T21:03:54.091Z,56.63
2022-12-25T21:06:24.226Z,56.23
2022-12-25T21:08:52.383Z,50.40
2022-12-25T21:11:21.479Z,48.77
2022-12-25T21:13:53.087Z,51.43
2022-12-25T21:16:23.246Z,50.03
2022-12-25T21:18:53.210Z,49.07
2022-12-25T21:21:23.890Z,50.10
2022-12-25T21:23:52.104Z,44.13
2022-12-25T21:26:22.571Z,48.60
2022-12-25T21:28:52.624Z,55.60
2022-12-25T21:31:22.452Z,49.00
2022-12-25T21:33:53.743Z,48.80
2022-12-25T21:36:27.488Z,55.67
2022-12-25T21:38:58.243Z,60.00
2022-12-25T21:41:28.628Z,55.90
2022-12-25T21:43:57.244Z,53.87
2022-12-25T21:46:26.478Z,49.30
2022-12-25T21:48:55.555Z,50.40
2022-12-25T21:51:46.518Z,48.63
2022-12-25T21:54:15.899Z,49.30
2022-12-25T21:56:46.142Z,43.77
2022-12-25T21:59:16.280Z,49.27
2022-12-25T22:01:45.630Z,46.60
2022-12-25T22:04:15.905Z,48.17
2022-12-25T22:07:03.378Z,47.30
2022-12-25T22:09:31.645Z,44.97
2022-12-25T22:12:17.678Z,47.47
2022-12-25T22:14:58.001Z,48.60
2022-12-25T22:17:45.591Z,45.83
2022-12-25T22:20:16.028Z,47.60
2022-12-25T22:22:46.027Z,47.80
2022-12-25T22:25:15.068Z,49.83
2022-12-25T22:27:45.205Z,42.67
2022-12-25T22:30:15.978Z,42.93
2022-12-25T22:32:44.516Z,40.30
2022-12-25T22:35:13.197Z,38.10
2022-12-25T22:37:42.187Z,38.17
2022-12-25T22:40:14.039Z,38.30
2022-12-25T22:42:42.667Z,41.13
2022-12-25T22:45:12.003Z,42.80
2022-12-25T22:47:40.656Z,37.60
2022-12-25T22:50:10.666Z,36.50
2022-12-25T22:52:39.480Z,38.63
2022-12-25T22:55:09.974Z,38.90
2022-12-25T22:57:39.641Z,37.60
2022-12-25T23:00:13.147Z,37.87
2022-12-25T23:02:42.129Z,35.90
2022-12-25T23:05:10.659Z,36.97
2022-12-25T23:07:38.947Z,37.77
2022-12-25T23:10:08.375Z,36.00
2022-12-25T23:12:53.710Z,37.80
2022-12-25T23:15:23.630Z,40.60
2022-12-25T23:18:09.303Z,37.90
2022-12-25T23:20:55.559Z,47.17
2022-12-25T23:23:41.590Z,45.93
2022-12-25T23:26:10.050Z,44.77
2022-12-25T23:28:56.689Z,39.40
2022-12-25T23:31:30.104Z,44.13
2022-12-25T23:33:59.322Z,45.90
2022-12-25T23:36:28.614Z,46.40
2022-12-25T23:38:58.300Z,44.20
2022-12-25T23:41:30.404Z,43.40
2022-12-25T23:44:00.848Z,50.63
2022-12-25T23:46:30.712Z,42.93
2022-12-25T23:48:59.012Z,42.27
2022-12-25T23:51:27.299Z,41.23
2022-12-25T23:53:55.543Z,40.07
2022-12-25T23:56:23.796Z,38.50
2022-12-25T23:58:52.472Z,38.03
